CheckWX is a tool to help pilots better visualize weather data.  It is not intended as a substitute for an official pre-flight weather briefing.

14:46:31 UTC

KGCM METAR
Claremore Regional Airport
Claremore, Oklahoma, USA
Current

12 mins ago

KGCM 251435Z AUTO 33007KT 10SM SCT011 15/12 A2982 RMK AO2
Observed
Apr-25 @ 14:35 UTC
Wind
  • 330° at 7 KTS
Visibility
10 SM
Flight Rules
VFR
Cloud Levels
  • Scattered at 1,100' AGL
Temperature
15°C / 59°F
Dewpoint
12°C / 54°F
Humidity
82%
Altimeter
29.82" Hg
Pressure
1009.82 hPa
Previous

32 mins ago

KGCM 251415Z AUTO 34004KT 10SM SCT016 15/12 A2983 RMK AO2
Observed
Apr-25 @ 14:15 UTC
Wind
  • 340° at 4 KTS
Visibility
10 SM
Flight Rules
VFR
Cloud Levels
  • Scattered at 1,600' AGL
Temperature
15°C / 59°F
Dewpoint
12°C / 54°F
Humidity
82%
Altimeter
29.83" Hg
Pressure
1010.12 hPa
Previous

52 mins ago

KGCM 251355Z AUTO 34004KT 7SM BKN018 14/12 A2983 RMK AO2
Observed
Apr-25 @ 13:55 UTC
Wind
  • 340° at 4 KTS
Visibility
7 SM
Flight Rules
MVFR
Cloud Levels
  • Broken at 1,800' AGL
Temperature
14°C / 57°F
Dewpoint
12°C / 54°F
Humidity
88%
Altimeter
29.83" Hg
Pressure
1010.12 hPa